sensor_id;sensor_type;location;lat;lon;timestamp;P1;durP1;ratioP1;P2;durP2;ratioP2
8857;SDS011;4465;50.904;4.696;2023-06-26T00:00:50;6.15;;;3.92;;
8857;SDS011;4465;50.904;4.696;2023-06-26T00:03:17;8.02;;;4.22;;
8857;SDS011;4465;50.904;4.696;2023-06-26T00:05:46;9.55;;;4.00;;
8857;SDS011;4465;50.904;4.696;2023-06-26T00:08:12;7.00;;;4.43;;
8857;SDS011;4465;50.904;4.696;2023-06-26T00:10:37;8.90;;;4.35;;
8857;SDS011;4465;50.904;4.696;2023-06-26T00:13:06;9.10;;;4.18;;
8857;SDS011;4465;50.904;4.696;2023-06-26T00:15:32;7.50;;;4.30;;
8857;SDS011;4465;50.904;4.696;2023-06-26T00:17:58;8.07;;;3.92;;
8857;SDS011;4465;50.904;4.696;2023-06-26T00:20:24;7.95;;;4.28;;
8857;SDS011;4465;50.904;4.696;2023-06-26T00:22:50;9.05;;;4.22;;
8857;SDS011;4465;50.904;4.696;2023-06-26T00:25:23;8.18;;;4.10;;
8857;SDS011;4465;50.904;4.696;2023-06-26T00:27:51;6.35;;;4.18;;
8857;SDS011;4465;50.904;4.696;2023-06-26T00:30:19;10.55;;;4.18;;
8857;SDS011;4465;50.904;4.696;2023-06-26T00:32:45;7.00;;;3.67;;
8857;SDS011;4465;50.904;4.696;2023-06-26T00:35:11;7.35;;;3.33;;
8857;SDS011;4465;50.904;4.696;2023-06-26T00:37:37;7.20;;;3.88;;
8857;SDS011;4465;50.904;4.696;2023-06-26T00:40:03;6.72;;;3.80;;
8857;SDS011;4465;50.904;4.696;2023-06-26T00:42:30;8.95;;;3.75;;
8857;SDS011;4465;50.904;4.696;2023-06-26T00:45:01;9.07;;;3.97;;
8857;SDS011;4465;50.904;4.696;2023-06-26T00:47:27;6.32;;;3.88;;
8857;SDS011;4465;50.904;4.696;2023-06-26T00:49:56;6.28;;;4.03;;
8857;SDS011;4465;50.904;4.696;2023-06-26T00:52:25;8.30;;;4.55;;
8857;SDS011;4465;50.904;4.696;2023-06-26T00:54:51;9.60;;;4.32;;
8857;SDS011;4465;50.904;4.696;2023-06-26T00:57:19;5.18;;;3.67;;
8857;SDS011;4465;50.904;4.696;2023-06-26T00:59:48;6.72;;;4.20;;
8857;SDS011;4465;50.904;4.696;2023-06-26T01:02:16;6.60;;;3.85;;
8857;SDS011;4465;50.904;4.696;2023-06-26T01:04:48;7.15;;;4.05;;
8857;SDS011;4465;50.904;4.696;2023-06-26T01:07:17;6.85;;;3.78;;
8857;SDS011;4465;50.904;4.696;2023-06-26T01:09:48;5.78;;;3.30;;
8857;SDS011;4465;50.904;4.696;2023-06-26T01:12:14;6.28;;;3.60;;
8857;SDS011;4465;50.904;4.696;2023-06-26T01:14:42;5.20;;;3.67;;
8857;SDS011;4465;50.904;4.696;2023-06-26T01:17:10;7.03;;;3.72;;
8857;SDS011;4465;50.904;4.696;2023-06-26T01:19:42;7.05;;;3.42;;
8857;SDS011;4465;50.904;4.696;2023-06-26T01:22:13;6.85;;;3.40;;
8857;SDS011;4465;50.904;4.696;2023-06-26T01:24:56;8.90;;;3.88;;
8857;SDS011;4465;50.904;4.696;2023-06-26T01:27:46;13.32;;;3.83;;
8857;SDS011;4465;50.904;4.696;2023-06-26T01:30:14;10.00;;;3.70;;
8857;SDS011;4465;50.904;4.696;2023-06-26T01:32:44;5.63;;;3.33;;
8857;SDS011;4465;50.904;4.696;2023-06-26T01:35:12;6.07;;;3.55;;
8857;SDS011;4465;50.904;4.696;2023-06-26T01:37:39;10.57;;;3.63;;
8857;SDS011;4465;50.904;4.696;2023-06-26T01:40:08;7.05;;;3.55;;
8857;SDS011;4465;50.904;4.696;2023-06-26T01:42:35;10.68;;;3.60;;
8857;SDS011;4465;50.904;4.696;2023-06-26T01:45:08;6.63;;;3.13;;
8857;SDS011;4465;50.904;4.696;2023-06-26T01:47:43;8.32;;;3.60;;
8857;SDS011;4465;50.904;4.696;2023-06-26T01:50:24;6.57;;;3.15;;
8857;SDS011;4465;50.904;4.696;2023-06-26T01:55:38;6.18;;;3.38;;
8857;SDS011;4465;50.904;4.696;2023-06-26T01:58:13;6.57;;;3.27;;
8857;SDS011;4465;50.904;4.696;2023-06-26T02:00:42;6.35;;;3.05;;
8857;SDS011;4465;50.904;4.696;2023-06-26T02:03:11;5.38;;;3.30;;
8857;SDS011;4465;50.904;4.696;2023-06-26T02:05:40;8.38;;;3.38;;
8857;SDS011;4465;50.904;4.696;2023-06-26T02:08:08;9.20;;;3.17;;
8857;SDS011;4465;50.904;4.696;2023-06-26T02:10:34;7.22;;;3.42;;
8857;SDS011;4465;50.904;4.696;2023-06-26T02:13:00;6.53;;;3.30;;
8857;SDS011;4465;50.904;4.696;2023-06-26T02:15:26;8.38;;;3.50;;
8857;SDS011;4465;50.904;4.696;2023-06-26T02:17:52;8.25;;;4.03;;
8857;SDS011;4465;50.904;4.696;2023-06-26T02:20:18;5.82;;;3.33;;
8857;SDS011;4465;50.904;4.696;2023-06-26T02:22:44;7.97;;;3.10;;
8857;SDS011;4465;50.904;4.696;2023-06-26T02:25:13;6.07;;;3.10;;
8857;SDS011;4465;50.904;4.696;2023-06-26T02:27:40;6.95;;;3.15;;
8857;SDS011;4465;50.904;4.696;2023-06-26T02:30:12;5.82;;;3.15;;
8857;SDS011;4465;50.904;4.696;2023-06-26T02:32:40;5.57;;;3.22;;
8857;SDS011;4465;50.904;4.696;2023-06-26T02:35:06;7.47;;;3.20;;
8857;SDS011;4465;50.904;4.696;2023-06-26T02:37:32;6.28;;;2.97;;
8857;SDS011;4465;50.904;4.696;2023-06-26T02:39:58;8.25;;;3.08;;
8857;SDS011;4465;50.904;4.696;2023-06-26T02:42:27;8.68;;;3.20;;
8857;SDS011;4465;50.904;4.696;2023-06-26T02:44:57;8.30;;;3.15;;
8857;SDS011;4465;50.904;4.696;2023-06-26T02:47:23;6.88;;;3.10;;
8857;SDS011;4465;50.904;4.696;2023-06-26T02:49:49;7.97;;;3.30;;
8857;SDS011;4465;50.904;4.696;2023-06-26T02:52:15;10.15;;;3.50;;
8857;SDS011;4465;50.904;4.696;2023-06-26T02:54:43;9.07;;;3.45;;
8857;SDS011;4465;50.904;4.696;2023-06-26T02:57:11;9.82;;;3.20;;
8857;SDS011;4465;50.904;4.696;2023-06-26T02:59:39;8.00;;;3.22;;
8857;SDS011;4465;50.904;4.696;2023-06-26T03:02:08;8.80;;;3.40;;
8857;SDS011;4465;50.904;4.696;2023-06-26T03:04:34;12.65;;;3.90;;
8857;SDS011;4465;50.904;4.696;2023-06-26T03:07:04;10.00;;;3.67;;
8857;SDS011;4465;50.904;4.696;2023-06-26T03:09:33;9.07;;;3.53;;
8857;SDS011;4465;50.904;4.696;2023-06-26T03:12:01;8.35;;;3.42;;
8857;SDS011;4465;50.904;4.696;2023-06-26T03:14:27;6.40;;;3.00;;
8857;SDS011;4465;50.904;4.696;2023-06-26T03:16:55;12.00;;;3.50;;
8857;SDS011;4465;50.904;4.696;2023-06-26T03:19:23;8.93;;;3.63;;
8857;SDS011;4465;50.904;4.696;2023-06-26T03:21:51;11.80;;;3.95;;
8857;SDS011;4465;50.904;4.696;2023-06-26T03:24:17;9.35;;;3.70;;
8857;SDS011;4465;50.904;4.696;2023-06-26T03:26:43;8.93;;;3.67;;
8857;SDS011;4465;50.904;4.696;2023-06-26T03:29:12;6.22;;;3.30;;
8857;SDS011;4465;50.904;4.696;2023-06-26T03:31:38;11.50;;;3.53;;
8857;SDS011;4465;50.904;4.696;2023-06-26T03:34:06;13.20;;;3.92;;
8857;SDS011;4465;50.904;4.696;2023-06-26T03:36:32;10.93;;;4.05;;
8857;SDS011;4465;50.904;4.696;2023-06-26T03:38:58;10.27;;;4.00;;
8857;SDS011;4465;50.904;4.696;2023-06-26T03:41:29;10.38;;;4.15;;
8857;SDS011;4465;50.904;4.696;2023-06-26T03:43:55;8.90;;;4.20;;
8857;SDS011;4465;50.904;4.696;2023-06-26T03:46:22;9.18;;;3.55;;
8857;SDS011;4465;50.904;4.696;2023-06-26T03:48:48;11.13;;;4.13;;
8857;SDS011;4465;50.904;4.696;2023-06-26T03:51:14;10.32;;;3.92;;
8857;SDS011;4465;50.904;4.696;2023-06-26T03:53:40;10.90;;;3.90;;
8857;SDS011;4465;50.904;4.696;2023-06-26T03:56:08;13.88;;;4.43;;
8857;SDS011;4465;50.904;4.696;2023-06-26T03:58:37;11.77;;;4.00;;
8857;SDS011;4465;50.904;4.696;2023-06-26T04:01:03;10.13;;;3.40;;
8857;SDS011;4465;50.904;4.696;2023-06-26T04:03:29;11.18;;;3.65;;
8857;SDS011;4465;50.904;4.696;2023-06-26T04:05:59;8.55;;;3.42;;
8857;SDS011;4465;50.904;4.696;2023-06-26T04:08:25;10.15;;;3.70;;
8857;SDS011;4465;50.904;4.696;2023-06-26T04:10:55;14.95;;;3.53;;
8857;SDS011;4465;50.904;4.696;2023-06-26T04:13:26;14.15;;;3.92;;
8857;SDS011;4465;50.904;4.696;2023-06-26T04:15:52;15.38;;;4.43;;
8857;SDS011;4465;50.904;4.696;2023-06-26T04:18:17;12.63;;;3.42;;
8857;SDS011;4465;50.904;4.696;2023-06-26T04:23:45;18.88;;;4.40;;
8857;SDS011;4465;50.904;4.696;2023-06-26T04:26:11;15.77;;;4.38;;
8857;SDS011;4465;50.904;4.696;2023-06-26T04:28:42;20.85;;;4.40;;
8857;SDS011;4465;50.904;4.696;2023-06-26T04:31:09;8.70;;;3.30;;
8857;SDS011;4465;50.904;4.696;2023-06-26T04:33:36;16.60;;;4.18;;
8857;SDS011;4465;50.904;4.696;2023-06-26T04:36:03;11.10;;;3.53;;
8857;SDS011;4465;50.904;4.696;2023-06-26T04:38:30;15.35;;;4.22;;
8857;SDS011;4465;50.904;4.696;2023-06-26T04:41:02;12.27;;;4.30;;
8857;SDS011;4465;50.904;4.696;2023-06-26T04:43:28;11.90;;;3.75;;
8857;SDS011;4465;50.904;4.696;2023-06-26T04:45:56;17.25;;;3.80;;
8857;SDS011;4465;50.904;4.696;2023-06-26T04:48:25;13.68;;;3.63;;
8857;SDS011;4465;50.904;4.696;2023-06-26T04:50:59;12.40;;;3.55;;
8857;SDS011;4465;50.904;4.696;2023-06-26T04:53:25;12.52;;;3.53;;
8857;SDS011;4465;50.904;4.696;2023-06-26T04:55:51;13.07;;;4.68;;
8857;SDS011;4465;50.904;4.696;2023-06-26T04:58:18;13.98;;;3.88;;
8857;SDS011;4465;50.904;4.696;2023-06-26T05:00:44;13.73;;;3.83;;
8857;SDS011;4465;50.904;4.696;2023-06-26T05:03:14;12.05;;;3.28;;
8857;SDS011;4465;50.904;4.696;2023-06-26T05:05:42;17.35;;;4.78;;
8857;SDS011;4465;50.904;4.696;2023-06-26T05:10:45;15.20;;;3.80;;
8857;SDS011;4465;50.904;4.696;2023-06-26T05:13:12;15.23;;;4.05;;
8857;SDS011;4465;50.904;4.696;2023-06-26T05:15:40;13.02;;;3.65;;
8857;SDS011;4465;50.904;4.696;2023-06-26T05:18:07;11.75;;;4.03;;
8857;SDS011;4465;50.904;4.696;2023-06-26T05:20:34;13.50;;;3.38;;
8857;SDS011;4465;50.904;4.696;2023-06-26T05:23:04;13.85;;;3.65;;
8857;SDS011;4465;50.904;4.696;2023-06-26T05:25:30;14.70;;;3.80;;
8857;SDS011;4465;50.904;4.696;2023-06-26T05:27:57;15.85;;;3.45;;
8857;SDS011;4465;50.904;4.696;2023-06-26T05:30:26;11.90;;;3.22;;
8857;SDS011;4465;50.904;4.696;2023-06-26T05:32:53;19.00;;;3.57;;
8857;SDS011;4465;50.904;4.696;2023-06-26T05:35:20;13.32;;;3.78;;
8857;SDS011;4465;50.904;4.696;2023-06-26T05:37:50;17.38;;;3.78;;
8857;SDS011;4465;50.904;4.696;2023-06-26T05:40:17;18.30;;;3.80;;
8857;SDS011;4465;50.904;4.696;2023-06-26T05:42:44;12.15;;;3.13;;
8857;SDS011;4465;50.904;4.696;2023-06-26T05:45:10;12.80;;;3.65;;
8857;SDS011;4465;50.904;4.696;2023-06-26T05:47:39;12.45;;;3.22;;
8857;SDS011;4465;50.904;4.696;2023-06-26T05:50:08;9.70;;;3.00;;
8857;SDS011;4465;50.904;4.696;2023-06-26T05:52:35;13.60;;;3.17;;
8857;SDS011;4465;50.904;4.696;2023-06-26T05:55:04;14.60;;;3.83;;
8857;SDS011;4465;50.904;4.696;2023-06-26T05:57:31;17.38;;;3.92;;
8857;SDS011;4465;50.904;4.696;2023-06-26T05:59:59;13.27;;;2.97;;
8857;SDS011;4465;50.904;4.696;2023-06-26T06:02:28;19.23;;;3.70;;
8857;SDS011;4465;50.904;4.696;2023-06-26T06:04:54;9.52;;;2.78;;
8857;SDS011;4465;50.904;4.696;2023-06-26T06:07:20;15.52;;;3.60;;
8857;SDS011;4465;50.904;4.696;2023-06-26T06:09:47;12.55;;;3.58;;
8857;SDS011;4465;50.904;4.696;2023-06-26T06:12:13;11.18;;;3.35;;
8857;SDS011;4465;50.904;4.696;2023-06-26T06:14:41;10.13;;;2.88;;
8857;SDS011;4465;50.904;4.696;2023-06-26T06:17:09;11.50;;;3.03;;
8857;SDS011;4465;50.904;4.696;2023-06-26T06:19:35;17.73;;;3.50;;
8857;SDS011;4465;50.904;4.696;2023-06-26T06:22:06;8.93;;;2.60;;
8857;SDS011;4465;50.904;4.696;2023-06-26T06:24:34;8.63;;;2.83;;
8857;SDS011;4465;50.904;4.696;2023-06-26T06:27:00;10.13;;;2.85;;
8857;SDS011;4465;50.904;4.696;2023-06-26T06:29:28;15.00;;;3.17;;
8857;SDS011;4465;50.904;4.696;2023-06-26T06:32:00;10.57;;;2.90;;
8857;SDS011;4465;50.904;4.696;2023-06-26T06:34:26;13.30;;;2.67;;
8857;SDS011;4465;50.904;4.696;2023-06-26T06:36:52;11.30;;;3.30;;
8857;SDS011;4465;50.904;4.696;2023-06-26T06:39:18;13.63;;;2.88;;
8857;SDS011;4465;50.904;4.696;2023-06-26T06:41:46;10.43;;;2.58;;
8857;SDS011;4465;50.904;4.696;2023-06-26T06:44:14;10.18;;;2.78;;
8857;SDS011;4465;50.904;4.696;2023-06-26T06:46:41;10.13;;;3.22;;
8857;SDS011;4465;50.904;4.696;2023-06-26T06:49:11;13.25;;;2.75;;
8857;SDS011;4465;50.904;4.696;2023-06-26T06:51:37;9.20;;;3.45;;
8857;SDS011;4465;50.904;4.696;2023-06-26T06:54:03;12.15;;;2.53;;
8857;SDS011;4465;50.904;4.696;2023-06-26T06:56:32;9.63;;;2.50;;
8857;SDS011;4465;50.904;4.696;2023-06-26T06:58:58;14.18;;;2.90;;
8857;SDS011;4465;50.904;4.696;2023-06-26T07:01:26;10.57;;;3.00;;
8857;SDS011;4465;50.904;4.696;2023-06-26T07:03:51;7.88;;;2.17;;
8857;SDS011;4465;50.904;4.696;2023-06-26T07:06:20;14.27;;;2.55;;
8857;SDS011;4465;50.904;4.696;2023-06-26T07:08:45;11.68;;;3.00;;
8857;SDS011;4465;50.904;4.696;2023-06-26T07:11:11;16.38;;;2.42;;
8857;SDS011;4465;50.904;4.696;2023-06-26T07:13:40;10.70;;;2.65;;
8857;SDS011;4465;50.904;4.696;2023-06-26T07:16:08;10.48;;;2.22;;
8857;SDS011;4465;50.904;4.696;2023-06-26T07:18:37;8.52;;;2.35;;
8857;SDS011;4465;50.904;4.696;2023-06-26T07:21:03;11.57;;;2.55;;
8857;SDS011;4465;50.904;4.696;2023-06-26T07:23:34;8.55;;;2.08;;
8857;SDS011;4465;50.904;4.696;2023-06-26T07:26:03;9.95;;;2.15;;
8857;SDS011;4465;50.904;4.696;2023-06-26T07:28:29;9.98;;;4.30;;
8857;SDS011;4465;50.904;4.696;2023-06-26T07:30:55;6.65;;;1.88;;
8857;SDS011;4465;50.904;4.696;2023-06-26T07:33:23;9.10;;;2.35;;
8857;SDS011;4465;50.904;4.696;2023-06-26T07:35:48;5.45;;;2.08;;
8857;SDS011;4465;50.904;4.696;2023-06-26T07:38:17;7.20;;;1.83;;
8857;SDS011;4465;50.904;4.696;2023-06-26T07:40:43;7.40;;;2.13;;
8857;SDS011;4465;50.904;4.696;2023-06-26T07:43:09;14.95;;;2.17;;
8857;SDS011;4465;50.904;4.696;2023-06-26T07:45:34;10.35;;;2.10;;
8857;SDS011;4465;50.904;4.696;2023-06-26T07:48:00;10.50;;;2.17;;
8857;SDS011;4465;50.904;4.696;2023-06-26T07:50:27;12.60;;;2.20;;
8857;SDS011;4465;50.904;4.696;2023-06-26T07:52:57;14.13;;;2.10;;
8857;SDS011;4465;50.904;4.696;2023-06-26T07:55:25;8.13;;;2.00;;
8857;SDS011;4465;50.904;4.696;2023-06-26T07:57:52;12.48;;;2.53;;
8857;SDS011;4465;50.904;4.696;2023-06-26T08:00:18;9.80;;;2.40;;
8857;SDS011;4465;50.904;4.696;2023-06-26T08:02:44;5.75;;;1.85;;
8857;SDS011;4465;50.904;4.696;2023-06-26T08:05:13;8.25;;;1.80;;
8857;SDS011;4465;50.904;4.696;2023-06-26T08:07:39;7.53;;;1.90;;
8857;SDS011;4465;50.904;4.696;2023-06-26T08:10:05;9.32;;;2.88;;
8857;SDS011;4465;50.904;4.696;2023-06-26T08:12:35;12.52;;;1.63;;
8857;SDS011;4465;50.904;4.696;2023-06-26T08:15:05;8.35;;;1.73;;
8857;SDS011;4465;50.904;4.696;2023-06-26T08:17:32;6.72;;;1.58;;
8857;SDS011;4465;50.904;4.696;2023-06-26T08:19:58;7.63;;;1.90;;
8857;SDS011;4465;50.904;4.696;2023-06-26T08:22:24;5.32;;;1.73;;
8857;SDS011;4465;50.904;4.696;2023-06-26T08:24:49;7.68;;;1.55;;
8857;SDS011;4465;50.904;4.696;2023-06-26T08:27:18;8.77;;;1.77;;
8857;SDS011;4465;50.904;4.696;2023-06-26T08:29:43;4.68;;;1.63;;
8857;SDS011;4465;50.904;4.696;2023-06-26T08:32:09;6.80;;;1.73;;
8857;SDS011;4465;50.904;4.696;2023-06-26T08:34:38;7.43;;;1.88;;
8857;SDS011;4465;50.904;4.696;2023-06-26T08:37:06;7.45;;;1.73;;
8857;SDS011;4465;50.904;4.696;2023-06-26T08:39:34;7.63;;;2.28;;
8857;SDS011;4465;50.904;4.696;2023-06-26T08:42:00;5.28;;;1.63;;
8857;SDS011;4465;50.904;4.696;2023-06-26T08:44:26;8.73;;;1.70;;
8857;SDS011;4465;50.904;4.696;2023-06-26T08:46:52;6.43;;;1.77;;
8857;SDS011;4465;50.904;4.696;2023-06-26T08:49:20;10.20;;;2.00;;
8857;SDS011;4465;50.904;4.696;2023-06-26T08:51:57;7.75;;;1.80;;
8857;SDS011;4465;50.904;4.696;2023-06-26T08:54:34;5.95;;;1.90;;
8857;SDS011;4465;50.904;4.696;2023-06-26T08:57:03;18.42;;;3.47;;
8857;SDS011;4465;50.904;4.696;2023-06-26T08:59:34;12.27;;;2.30;;
8857;SDS011;4465;50.904;4.696;2023-06-26T09:02:00;10.10;;;1.80;;
8857;SDS011;4465;50.904;4.696;2023-06-26T09:04:26;3.50;;;1.58;;
8857;SDS011;4465;50.904;4.696;2023-06-26T09:06:52;6.57;;;1.63;;
8857;SDS011;4465;50.904;4.696;2023-06-26T09:09:20;5.60;;;1.50;;
8857;SDS011;4465;50.904;4.696;2023-06-26T09:11:46;5.32;;;1.65;;
8857;SDS011;4465;50.904;4.696;2023-06-26T09:14:14;7.28;;;1.60;;
8857;SDS011;4465;50.904;4.696;2023-06-26T09:16:43;4.85;;;1.80;;
8857;SDS011;4465;50.904;4.696;2023-06-26T09:19:15;7.88;;;1.80;;
8857;SDS011;4465;50.904;4.696;2023-06-26T09:21:41;5.70;;;1.60;;
8857;SDS011;4465;50.904;4.696;2023-06-26T09:24:08;7.50;;;2.13;;
8857;SDS011;4465;50.904;4.696;2023-06-26T09:26:36;6.18;;;1.50;;
8857;SDS011;4465;50.904;4.696;2023-06-26T09:31:38;7.32;;;1.58;;
8857;SDS011;4465;50.904;4.696;2023-06-26T09:34:04;8.63;;;1.80;;
8857;SDS011;4465;50.904;4.696;2023-06-26T09:36:33;8.43;;;1.80;;
8857;SDS011;4465;50.904;4.696;2023-06-26T09:39:05;7.85;;;1.80;;
8857;SDS011;4465;50.904;4.696;2023-06-26T09:41:36;11.52;;;2.13;;
8857;SDS011;4465;50.904;4.696;2023-06-26T09:44:04;5.60;;;1.60;;
8857;SDS011;4465;50.904;4.696;2023-06-26T09:46:30;6.45;;;1.40;;
8857;SDS011;4465;50.904;4.696;2023-06-26T09:49:18;6.23;;;1.33;;
8857;SDS011;4465;50.904;4.696;2023-06-26T09:51:43;6.22;;;1.45;;
8857;SDS011;4465;50.904;4.696;2023-06-26T09:54:09;5.45;;;1.90;;
8857;SDS011;4465;50.904;4.696;2023-06-26T09:56:36;10.05;;;1.98;;
8857;SDS011;4465;50.904;4.696;2023-06-26T09:59:03;7.57;;;1.40;;
8857;SDS011;4465;50.904;4.696;2023-06-26T10:01:32;3.92;;;1.42;;
8857;SDS011;4465;50.904;4.696;2023-06-26T10:03:59;6.70;;;1.67;;
8857;SDS011;4465;50.904;4.696;2023-06-26T10:06:31;7.17;;;1.60;;
8857;SDS011;4465;50.904;4.696;2023-06-26T10:09:01;3.38;;;1.40;;
8857;SDS011;4465;50.904;4.696;2023-06-26T10:11:44;4.25;;;1.23;;
8857;SDS011;4465;50.904;4.696;2023-06-26T10:14:21;4.97;;;1.67;;
8857;SDS011;4465;50.904;4.696;2023-06-26T10:16:52;3.05;;;1.15;;
8857;SDS011;4465;50.904;4.696;2023-06-26T10:19:24;3.45;;;1.38;;
8857;SDS011;4465;50.904;4.696;2023-06-26T10:21:52;4.70;;;1.48;;
8857;SDS011;4465;50.904;4.696;2023-06-26T10:24:22;4.75;;;1.35;;
8857;SDS011;4465;50.904;4.696;2023-06-26T10:26:52;4.57;;;1.20;;
8857;SDS011;4465;50.904;4.696;2023-06-26T10:29:22;5.43;;;2.17;;
8857;SDS011;4465;50.904;4.696;2023-06-26T10:31:51;2.90;;;1.38;;
8857;SDS011;4465;50.904;4.696;2023-06-26T10:34:21;7.38;;;1.63;;
8857;SDS011;4465;50.904;4.696;2023-06-26T10:36:47;3.70;;;1.60;;
8857;SDS011;4465;50.904;4.696;2023-06-26T10:39:25;5.85;;;1.42;;
8857;SDS011;4465;50.904;4.696;2023-06-26T10:41:51;5.75;;;1.50;;
8857;SDS011;4465;50.904;4.696;2023-06-26T10:44:23;3.53;;;1.33;;
8857;SDS011;4465;50.904;4.696;2023-06-26T10:46:52;5.25;;;1.60;;
8857;SDS011;4465;50.904;4.696;2023-06-26T10:49:20;3.03;;;1.25;;
8857;SDS011;4465;50.904;4.696;2023-06-26T10:51:50;8.07;;;1.50;;
8857;SDS011;4465;50.904;4.696;2023-06-26T10:54:20;3.28;;;1.25;;
8857;SDS011;4465;50.904;4.696;2023-06-26T10:56:46;3.88;;;0.93;;
8857;SDS011;4465;50.904;4.696;2023-06-26T10:59:17;5.13;;;1.38;;
8857;SDS011;4465;50.904;4.696;2023-06-26T11:02:05;3.70;;;1.20;;
8857;SDS011;4465;50.904;4.696;2023-06-26T11:07:14;4.90;;;1.30;;
8857;SDS011;4465;50.904;4.696;2023-06-26T11:09:53;3.58;;;1.27;;
8857;SDS011;4465;50.904;4.696;2023-06-26T11:15:11;5.47;;;1.30;;
8857;SDS011;4465;50.904;4.696;2023-06-26T11:17:38;4.68;;;1.10;;
8857;SDS011;4465;50.904;4.696;2023-06-26T11:20:06;8.60;;;1.35;;
8857;SDS011;4465;50.904;4.696;2023-06-26T11:22:40;3.42;;;1.05;;
8857;SDS011;4465;50.904;4.696;2023-06-26T11:25:10;4.95;;;1.27;;
8857;SDS011;4465;50.904;4.696;2023-06-26T11:27:42;5.57;;;1.33;;
8857;SDS011;4465;50.904;4.696;2023-06-26T11:30:09;6.50;;;1.30;;
8857;SDS011;4465;50.904;4.696;2023-06-26T11:32:49;6.93;;;1.38;;
8857;SDS011;4465;50.904;4.696;2023-06-26T11:35:23;3.85;;;1.38;;
8857;SDS011;4465;50.904;4.696;2023-06-26T11:38:00;4.05;;;1.40;;
8857;SDS011;4465;50.904;4.696;2023-06-26T11:40:30;4.82;;;1.30;;
8857;SDS011;4465;50.904;4.696;2023-06-26T11:43:00;8.73;;;1.77;;
8857;SDS011;4465;50.904;4.696;2023-06-26T11:45:29;5.03;;;1.02;;
8857;SDS011;4465;50.904;4.696;2023-06-26T11:47:59;4.50;;;1.10;;
8857;SDS011;4465;50.904;4.696;2023-06-26T11:50:25;4.68;;;1.45;;
8857;SDS011;4465;50.904;4.696;2023-06-26T11:52:57;10.02;;;1.30;;
8857;SDS011;4465;50.904;4.696;2023-06-26T11:55:25;9.75;;;1.98;;
8857;SDS011;4465;50.904;4.696;2023-06-26T11:57:54;2.97;;;1.40;;
8857;SDS011;4465;50.904;4.696;2023-06-26T12:00:23;5.10;;;1.60;;
8857;SDS011;4465;50.904;4.696;2023-06-26T12:02:49;4.72;;;1.38;;
8857;SDS011;4465;50.904;4.696;2023-06-26T12:05:17;5.25;;;1.33;;
8857;SDS011;4465;50.904;4.696;2023-06-26T12:07:43;6.97;;;1.45;;
8857;SDS011;4465;50.904;4.696;2023-06-26T12:10:11;2.85;;;1.27;;
8857;SDS011;4465;50.904;4.696;2023-06-26T12:12:38;5.22;;;1.48;;
8857;SDS011;4465;50.904;4.696;2023-06-26T12:15:13;4.15;;;1.42;;
8857;SDS011;4465;50.904;4.696;2023-06-26T12:17:41;3.15;;;1.23;;
8857;SDS011;4465;50.904;4.696;2023-06-26T12:20:21;6.80;;;1.35;;
8857;SDS011;4465;50.904;4.696;2023-06-26T12:22:50;10.20;;;1.80;;
8857;SDS011;4465;50.904;4.696;2023-06-26T12:25:16;12.27;;;3.22;;
8857;SDS011;4465;50.904;4.696;2023-06-26T12:27:48;4.57;;;1.33;;
8857;SDS011;4465;50.904;4.696;2023-06-26T12:30:15;4.55;;;1.40;;
8857;SDS011;4465;50.904;4.696;2023-06-26T12:32:44;5.57;;;1.40;;
8857;SDS011;4465;50.904;4.696;2023-06-26T12:35:12;4.18;;;1.45;;
8857;SDS011;4465;50.904;4.696;2023-06-26T12:37:38;3.38;;;1.02;;
8857;SDS011;4465;50.904;4.696;2023-06-26T12:40:19;5.47;;;1.63;;
8857;SDS011;4465;50.904;4.696;2023-06-26T12:42:48;4.47;;;1.60;;
8857;SDS011;4465;50.904;4.696;2023-06-26T12:45:14;4.20;;;1.30;;
8857;SDS011;4465;50.904;4.696;2023-06-26T12:47:43;4.47;;;1.50;;
8857;SDS011;4465;50.904;4.696;2023-06-26T12:50:11;4.70;;;1.60;;
8857;SDS011;4465;50.904;4.696;2023-06-26T12:52:42;4.53;;;1.45;;
8857;SDS011;4465;50.904;4.696;2023-06-26T12:55:08;4.72;;;1.60;;
8857;SDS011;4465;50.904;4.696;2023-06-26T12:57:37;3.50;;;1.40;;
8857;SDS011;4465;50.904;4.696;2023-06-26T13:00:03;8.38;;;1.60;;
8857;SDS011;4465;50.904;4.696;2023-06-26T13:04:58;5.75;;;1.50;;
8857;SDS011;4465;50.904;4.696;2023-06-26T13:07:28;3.10;;;1.27;;
8857;SDS011;4465;50.904;4.696;2023-06-26T13:09:54;2.75;;;1.60;;
8857;SDS011;4465;50.904;4.696;2023-06-26T13:12:21;4.63;;;1.80;;
8857;SDS011;4465;50.904;4.696;2023-06-26T13:14:49;6.32;;;1.65;;
8857;SDS011;4465;50.904;4.696;2023-06-26T13:17:15;4.82;;;1.58;;
8857;SDS011;4465;50.904;4.696;2023-06-26T13:19:43;3.58;;;1.48;;
8857;SDS011;4465;50.904;4.696;2023-06-26T13:22:09;5.10;;;1.60;;
8857;SDS011;4465;50.904;4.696;2023-06-26T13:24:40;3.38;;;1.55;;
8857;SDS011;4465;50.904;4.696;2023-06-26T13:27:08;4.45;;;1.65;;
8857;SDS011;4465;50.904;4.696;2023-06-26T13:29:36;2.50;;;1.40;;
8857;SDS011;4465;50.904;4.696;2023-06-26T13:32:02;4.95;;;1.50;;
8857;SDS011;4465;50.904;4.696;2023-06-26T13:34:28;3.38;;;1.50;;
8857;SDS011;4465;50.904;4.696;2023-06-26T13:36:57;5.85;;;1.80;;
8857;SDS011;4465;50.904;4.696;2023-06-26T13:39:25;3.17;;;1.48;;
8857;SDS011;4465;50.904;4.696;2023-06-26T13:41:53;7.20;;;1.60;;
8857;SDS011;4465;50.904;4.696;2023-06-26T13:44:21;9.45;;;1.50;;
8857;SDS011;4465;50.904;4.696;2023-06-26T13:46:50;3.80;;;1.45;;
8857;SDS011;4465;50.904;4.696;2023-06-26T13:49:15;3.63;;;1.48;;
8857;SDS011;4465;50.904;4.696;2023-06-26T13:51:41;5.93;;;1.50;;
8857;SDS011;4465;50.904;4.696;2023-06-26T13:54:12;3.95;;;1.60;;
8857;SDS011;4465;50.904;4.696;2023-06-26T13:56:38;6.13;;;1.80;;
8857;SDS011;4465;50.904;4.696;2023-06-26T13:59:06;4.53;;;1.25;;
8857;SDS011;4465;50.904;4.696;2023-06-26T14:01:32;3.17;;;1.15;;
8857;SDS011;4465;50.904;4.696;2023-06-26T14:03:58;2.53;;;1.55;;
8857;SDS011;4465;50.904;4.696;2023-06-26T14:06:24;5.32;;;1.95;;
8857;SDS011;4465;50.904;4.696;2023-06-26T14:08:49;4.43;;;1.70;;
8857;SDS011;4465;50.904;4.696;2023-06-26T14:11:15;3.53;;;1.45;;
8857;SDS011;4465;50.904;4.696;2023-06-26T14:13:42;9.82;;;1.88;;
8857;SDS011;4465;50.904;4.696;2023-06-26T14:16:08;5.18;;;1.65;;
8857;SDS011;4465;50.904;4.696;2023-06-26T14:18:37;4.55;;;1.60;;
8857;SDS011;4465;50.904;4.696;2023-06-26T14:21:03;6.85;;;2.05;;
8857;SDS011;4465;50.904;4.696;2023-06-26T14:23:34;3.38;;;1.42;;
8857;SDS011;4465;50.904;4.696;2023-06-26T14:26:02;6.07;;;1.58;;
8857;SDS011;4465;50.904;4.696;2023-06-26T14:28:28;8.40;;;1.90;;
8857;SDS011;4465;50.904;4.696;2023-06-26T14:30:54;4.03;;;1.63;;
8857;SDS011;4465;50.904;4.696;2023-06-26T14:33:20;6.32;;;1.50;;
8857;SDS011;4465;50.904;4.696;2023-06-26T14:35:48;4.07;;;1.40;;
8857;SDS011;4465;50.904;4.696;2023-06-26T14:38:16;4.43;;;1.23;;
8857;SDS011;4465;50.904;4.696;2023-06-26T14:40:42;3.83;;;1.35;;
8857;SDS011;4465;50.904;4.696;2023-06-26T14:43:13;9.73;;;1.63;;
8857;SDS011;4465;50.904;4.696;2023-06-26T14:45:39;3.42;;;1.52;;
8857;SDS011;4465;50.904;4.696;2023-06-26T14:48:07;3.85;;;1.50;;
8857;SDS011;4465;50.904;4.696;2023-06-26T14:50:33;5.32;;;1.60;;
8857;SDS011;4465;50.904;4.696;2023-06-26T14:52:59;3.75;;;1.42;;
8857;SDS011;4465;50.904;4.696;2023-06-26T14:55:27;3.22;;;1.35;;
8857;SDS011;4465;50.904;4.696;2023-06-26T14:57:53;3.55;;;1.50;;
8857;SDS011;4465;50.904;4.696;2023-06-26T15:00:21;2.72;;;1.40;;
8857;SDS011;4465;50.904;4.696;2023-06-26T15:02:48;4.35;;;1.73;;
8857;SDS011;4465;50.904;4.696;2023-06-26T15:05:14;9.05;;;1.65;;
8857;SDS011;4465;50.904;4.696;2023-06-26T15:07:43;7.07;;;1.60;;
8857;SDS011;4465;50.904;4.696;2023-06-26T15:10:09;11.77;;;1.75;;
8857;SDS011;4465;50.904;4.696;2023-06-26T15:12:37;5.60;;;1.27;;
8857;SDS011;4465;50.904;4.696;2023-06-26T15:15:06;4.72;;;1.30;;
8857;SDS011;4465;50.904;4.696;2023-06-26T15:17:33;4.07;;;1.20;;
8857;SDS011;4465;50.904;4.696;2023-06-26T15:20:03;4.72;;;1.67;;
8857;SDS011;4465;50.904;4.696;2023-06-26T15:22:30;5.90;;;1.67;;
8857;SDS011;4465;50.904;4.696;2023-06-26T15:24:58;5.30;;;1.40;;
8857;SDS011;4465;50.904;4.696;2023-06-26T15:27:24;6.35;;;1.98;;
8857;SDS011;4465;50.904;4.696;2023-06-26T15:29:50;4.53;;;1.95;;
8857;SDS011;4465;50.904;4.696;2023-06-26T15:32:18;4.22;;;1.60;;
8857;SDS011;4465;50.904;4.696;2023-06-26T15:34:45;4.88;;;1.48;;
8857;SDS011;4465;50.904;4.696;2023-06-26T15:37:12;10.20;;;1.67;;